createdAt,value
2017-09-30T00:02:16.727Z,25.30
2017-09-30T00:04:48.489Z,25.30
2017-09-30T00:07:20.637Z,25.40
2017-09-30T00:09:51.688Z,25.40
2017-09-30T00:12:23.479Z,25.40
2017-09-30T00:14:54.503Z,25.40
2017-09-30T00:17:26.278Z,25.50
2017-09-30T00:19:57.313Z,25.50
2017-09-30T00:22:28.330Z,25.60
2017-09-30T00:25:01.136Z,25.60
2017-09-30T00:27:32.135Z,25.60
2017-09-30T00:30:03.166Z,25.70
2017-09-30T00:32:34.254Z,25.70
2017-09-30T00:35:05.277Z,25.80
2017-09-30T00:37:37.522Z,26.00
2017-09-30T00:40:08.546Z,25.90
2017-09-30T00:42:39.574Z,26.10
2017-09-30T00:45:10.576Z,26.20
2017-09-30T00:47:43.467Z,26.30
2017-09-30T00:50:15.749Z,26.40
2017-09-30T00:52:46.790Z,26.50
2017-09-30T00:55:18.128Z,26.60
2017-09-30T00:57:49.131Z,26.70
2017-09-30T01:00:20.698Z,26.80
2017-09-30T01:02:52.465Z,27.00
2017-09-30T01:05:24.248Z,27.10
2017-09-30T01:07:55.666Z,27.10
2017-09-30T01:10:27.576Z,27.30
2017-09-30T01:12:58.597Z,27.30
2017-09-30T01:15:29.652Z,27.30
2017-09-30T01:18:00.649Z,27.40
2017-09-30T01:20:32.926Z,27.40
2017-09-30T01:23:04.706Z,27.40
2017-09-30T01:25:36.136Z,27.40
2017-09-30T01:28:07.925Z,27.50
2017-09-30T01:30:38.989Z,27.50
2017-09-30T01:33:09.993Z,27.60
2017-09-30T01:35:41.062Z,27.60
2017-09-30T01:38:12.544Z,27.70
2017-09-30T01:40:43.578Z,27.70
2017-09-30T01:43:14.584Z,27.70
2017-09-30T01:45:46.555Z,27.80
2017-09-30T01:48:17.598Z,27.80
2017-09-30T01:50:49.012Z,27.80
2017-09-30T01:53:20.049Z,27.90
2017-09-30T01:55:51.368Z,28.00
2017-09-30T01:58:22.397Z,28.00
2017-09-30T02:00:53.444Z,28.10
2017-09-30T02:03:24.471Z,28.10
2017-09-30T02:05:55.749Z,28.20
2017-09-30T02:08:28.780Z,28.10
2017-09-30T02:10:59.793Z,28.10
2017-09-30T02:13:31.570Z,28.10
2017-09-30T02:16:02.617Z,28.10
2017-09-30T02:18:33.637Z,28.20
2017-09-30T02:21:04.866Z,28.30
2017-09-30T02:23:36.677Z,28.40
2017-09-30T02:26:08.670Z,28.30
2017-09-30T02:28:39.687Z,28.30
2017-09-30T02:31:10.703Z,28.20
2017-09-30T02:33:41.755Z,28.00
2017-09-30T02:36:12.878Z,27.90
2017-09-30T02:38:44.069Z,27.80
2017-09-30T02:41:15.143Z,27.60
2017-09-30T02:43:46.941Z,27.30
2017-09-30T02:46:18.846Z,27.40
2017-09-30T02:48:50.679Z,27.40
2017-09-30T02:51:22.164Z,27.40
2017-09-30T02:53:53.958Z,27.30
2017-09-30T02:56:25.898Z,27.30
2017-09-30T02:58:56.941Z,27.40
2017-09-30T03:01:27.993Z,27.40
2017-09-30T03:03:59.020Z,27.40
2017-09-30T03:06:30.148Z,27.40
2017-09-30T03:09:02.876Z,27.40
2017-09-30T03:11:34.209Z,27.40
2017-09-30T03:14:05.268Z,27.40
2017-09-30T03:16:36.303Z,27.40
2017-09-30T03:19:07.304Z,27.50
2017-09-30T03:21:39.572Z,27.60
2017-09-30T03:24:11.817Z,27.70
2017-09-30T03:26:43.193Z,27.70
2017-09-30T03:29:16.072Z,27.80
2017-09-30T03:31:48.003Z,27.80
2017-09-30T03:34:19.055Z,27.80
2017-09-30T03:36:50.156Z,27.80
2017-09-30T03:39:22.284Z,27.90
2017-09-30T03:41:54.146Z,27.90
2017-09-30T03:44:25.929Z,28.00
2017-09-30T03:46:56.977Z,28.00
2017-09-30T03:49:28.005Z,28.00
2017-09-30T03:51:59.336Z,28.00
2017-09-30T03:54:31.113Z,28.10
2017-09-30T03:57:02.397Z,28.10
2017-09-30T03:59:33.407Z,28.00
2017-09-30T04:02:04.445Z,28.00
2017-09-30T04:04:35.858Z,28.00
2017-09-30T04:07:07.766Z,28.00
2017-09-30T04:09:39.412Z,28.00
2017-09-30T04:12:10.589Z,28.00
2017-09-30T04:14:41.723Z,27.90
2017-09-30T04:17:13.072Z,27.90
2017-09-30T04:19:44.137Z,27.90
2017-09-30T04:22:15.552Z,27.90
2017-09-30T04:24:47.173Z,27.90
2017-09-30T04:27:19.828Z,27.90
2017-09-30T04:29:51.823Z,27.90
2017-09-30T04:32:22.849Z,27.90
2017-09-30T04:34:54.633Z,28.00
2017-09-30T04:37:25.848Z,28.00
2017-09-30T04:39:58.212Z,28.10
2017-09-30T04:42:30.019Z,28.20
2017-09-30T04:45:01.339Z,28.10
2017-09-30T04:47:33.105Z,28.40
2017-09-30T04:50:04.125Z,28.30
2017-09-30T04:52:36.316Z,28.60
2017-09-30T04:55:07.340Z,28.60
2017-09-30T04:57:39.146Z,28.90
2017-09-30T05:00:10.244Z,28.90
2017-09-30T05:02:42.288Z,29.10
2017-09-30T05:05:13.850Z,29.10
2017-09-30T05:07:45.673Z,29.20
2017-09-30T05:10:17.161Z,29.20
2017-09-30T05:12:49.097Z,29.40
2017-09-30T05:15:20.117Z,29.40
2017-09-30T05:17:51.184Z,29.40
2017-09-30T05:20:22.998Z,29.50
2017-09-30T05:22:54.452Z,29.50
2017-09-30T05:25:25.550Z,29.50
2017-09-30T05:27:58.077Z,29.50
2017-09-30T05:30:29.085Z,29.50
2017-09-30T05:33:00.885Z,29.60
2017-09-30T05:35:32.269Z,29.60
2017-09-30T05:38:03.308Z,29.70
2017-09-30T05:40:34.748Z,29.80
2017-09-30T05:43:06.753Z,29.80
2017-09-30T05:45:37.809Z,29.80
2017-09-30T05:48:08.910Z,29.70
2017-09-30T05:50:39.947Z,29.70
2017-09-30T05:53:11.449Z,29.70
2017-09-30T05:55:42.473Z,29.60
2017-09-30T05:58:13.504Z,29.60
2017-09-30T06:00:45.329Z,29.60
2017-09-30T06:03:16.536Z,29.50
2017-09-30T06:05:48.046Z,29.40
2017-09-30T06:08:27.713Z,29.20
2017-09-30T06:11:01.725Z,29.20
2017-09-30T06:13:32.773Z,29.10
2017-09-30T06:16:03.857Z,29.00
2017-09-30T06:18:35.093Z,28.90
2017-09-30T06:21:06.135Z,28.80
2017-09-30T06:23:37.656Z,28.70
2017-09-30T06:26:08.669Z,28.70
2017-09-30T06:28:40.492Z,28.60
2017-09-30T06:31:11.605Z,28.50
2017-09-30T06:33:42.699Z,28.50
2017-09-30T06:36:14.887Z,28.40
2017-09-30T06:38:51.613Z,28.40
2017-09-30T06:41:23.261Z,28.40
2017-09-30T06:43:55.241Z,28.40
2017-09-30T06:46:26.704Z,28.30
2017-09-30T06:48:57.759Z,28.30
2017-09-30T06:51:29.608Z,28.40
2017-09-30T06:54:01.929Z,28.40
2017-09-30T06:56:32.949Z,28.50
2017-09-30T06:59:03.989Z,28.70
2017-09-30T07:01:35.000Z,28.80
2017-09-30T07:04:06.008Z,28.90
2017-09-30T07:06:38.514Z,28.90
2017-09-30T07:09:09.554Z,29.00
2017-09-30T07:11:40.682Z,29.00
2017-09-30T07:14:12.084Z,29.10
2017-09-30T07:16:43.117Z,29.30
2017-09-30T07:19:14.831Z,29.60
2017-09-30T07:21:45.896Z,29.70
2017-09-30T07:24:18.205Z,29.80
2017-09-30T07:26:49.282Z,29.70
2017-09-30T07:29:22.213Z,29.90
2017-09-30T07:31:53.225Z,30.10
2017-09-30T07:34:24.284Z,30.10
2017-09-30T07:36:56.464Z,30.20
2017-09-30T07:39:27.534Z,30.20
2017-09-30T07:41:58.559Z,30.20
2017-09-30T07:44:30.140Z,30.10
2017-09-30T07:47:01.181Z,30.10
2017-09-30T07:49:32.374Z,30.00
2017-09-30T07:52:04.144Z,30.20
2017-09-30T07:54:36.197Z,30.10
2017-09-30T07:57:08.682Z,30.20
2017-09-30T07:59:39.720Z,30.20
2017-09-30T08:02:12.422Z,30.10
2017-09-30T08:04:43.444Z,30.10
2017-09-30T08:07:14.606Z,30.20
2017-09-30T08:09:46.633Z,30.30
2017-09-30T08:12:18.436Z,30.20
2017-09-30T08:14:49.466Z,30.20
2017-09-30T08:17:20.482Z,30.10
2017-09-30T08:19:52.616Z,29.90
2017-09-30T08:22:23.656Z,29.90
2017-09-30T08:24:55.021Z,29.90
2017-09-30T08:27:26.800Z,29.80
2017-09-30T08:29:57.953Z,29.70
2017-09-30T08:32:28.966Z,29.70
2017-09-30T08:35:00.777Z,29.60
2017-09-30T08:37:32.277Z,29.60
2017-09-30T08:40:04.144Z,29.50
2017-09-30T08:42:35.953Z,29.50
2017-09-30T08:45:06.969Z,29.50
2017-09-30T08:47:38.000Z,29.40
2017-09-30T08:50:09.337Z,29.40
2017-09-30T08:52:41.109Z,29.30
2017-09-30T08:55:12.149Z,29.30
2017-09-30T08:57:43.166Z,29.30
2017-09-30T09:00:14.933Z,29.20
2017-09-30T09:02:46.684Z,29.10
2017-09-30T09:05:18.478Z,29.10
2017-09-30T09:07:49.964Z,29.10
2017-09-30T09:10:21.851Z,29.10
2017-09-30T09:12:53.630Z,29.10
2017-09-30T09:15:25.424Z,29.10
2017-09-30T09:17:56.450Z,29.10
2017-09-30T09:20:27.869Z,29.10
2017-09-30T09:22:59.652Z,29.10
2017-09-30T09:25:30.674Z,29.00
2017-09-30T09:28:01.693Z,29.00
2017-09-30T09:30:33.488Z,29.00
2017-09-30T09:33:04.520Z,28.90
2017-09-30T09:35:36.638Z,29.00
2017-09-30T09:38:07.920Z,28.90
2017-09-30T09:40:39.950Z,28.90
2017-09-30T09:43:10.973Z,28.90
2017-09-30T09:45:42.873Z,28.90
2017-09-30T09:48:14.709Z,28.90
2017-09-30T09:50:46.198Z,28.90
2017-09-30T09:53:17.238Z,28.90
2017-09-30T09:55:49.042Z,28.70
2017-09-30T09:58:20.059Z,28.70
2017-09-30T10:00:51.092Z,28.70
2017-09-30T10:03:22.357Z,28.60
2017-09-30T10:05:53.403Z,28.60
2017-09-30T10:08:24.803Z,28.60
2017-09-30T10:10:56.585Z,28.50
2017-09-30T10:13:27.612Z,28.50
2017-09-30T10:15:59.409Z,28.40
2017-09-30T10:18:30.408Z,28.40
2017-09-30T10:21:02.748Z,28.40
2017-09-30T10:23:34.532Z,28.30
2017-09-30T10:26:06.325Z,28.30
2017-09-30T10:28:37.364Z,28.30
2017-09-30T10:31:08.423Z,28.30
2017-09-30T10:33:39.969Z,28.20
2017-09-30T10:36:10.988Z,28.20
2017-09-30T10:38:42.213Z,28.20
2017-09-30T10:41:14.050Z,28.10
2017-09-30T10:43:45.053Z,28.10
2017-09-30T10:46:17.088Z,28.10
2017-09-30T10:48:48.853Z,28.00
2017-09-30T10:51:20.295Z,28.00
2017-09-30T10:53:52.082Z,27.90
2017-09-30T10:56:23.113Z,27.90
2017-09-30T10:58:54.217Z,27.90
2017-09-30T11:01:26.018Z,27.80
2017-09-30T11:03:57.407Z,27.80
2017-09-30T11:06:28.418Z,27.80
2017-09-30T11:08:59.834Z,27.70
2017-09-30T11:11:31.656Z,27.70
2017-09-30T11:14:02.699Z,27.60
2017-09-30T11:16:33.759Z,27.60
2017-09-30T11:19:05.529Z,27.50
2017-09-30T11:21:37.921Z,27.50
2017-09-30T11:24:08.930Z,27.50
2017-09-30T11:26:40.741Z,27.40
2017-09-30T11:29:11.765Z,27.40
2017-09-30T11:31:42.858Z,27.30
2017-09-30T11:34:14.266Z,27.40
2017-09-30T11:36:45.289Z,27.30
2017-09-30T11:39:17.533Z,27.30
2017-09-30T11:41:50.313Z,27.20
2017-09-30T11:44:22.106Z,27.20
2017-09-30T11:46:53.557Z,27.20
2017-09-30T11:49:24.561Z,27.20
2017-09-30T11:51:56.909Z,27.20
2017-09-30T11:54:27.916Z,27.20
2017-09-30T11:56:59.023Z,27.20
2017-09-30T11:59:30.817Z,27.10
2017-09-30T12:02:01.994Z,27.10
2017-09-30T12:04:33.364Z,27.10
2017-09-30T12:07:05.305Z,27.00
2017-09-30T12:09:36.343Z,27.00
2017-09-30T12:12:07.529Z,27.00
2017-09-30T12:14:39.350Z,27.00
2017-09-30T12:17:10.922Z,26.90
2017-09-30T12:19:43.424Z,26.90
2017-09-30T12:22:15.546Z,26.90
2017-09-30T12:24:46.587Z,26.90
2017-09-30T12:27:17.688Z,26.90
2017-09-30T12:29:48.717Z,26.80
2017-09-30T12:32:19.764Z,26.90
2017-09-30T12:34:51.194Z,26.90
2017-09-30T12:37:22.965Z,26.90
2017-09-30T12:39:53.973Z,26.90
2017-09-30T12:42:25.736Z,27.00
2017-09-30T12:44:57.546Z,27.00
2017-09-30T12:47:28.850Z,26.90
2017-09-30T12:50:00.627Z,26.90
2017-09-30T12:52:32.048Z,26.90
2017-09-30T12:57:38.581Z,26.90
2017-09-30T13:00:10.361Z,26.80
2017-09-30T13:02:41.436Z,26.80
2017-09-30T13:05:13.634Z,26.80
2017-09-30T13:07:44.738Z,26.70
2017-09-30T13:10:15.747Z,26.80
2017-09-30T13:12:46.792Z,26.80
2017-09-30T13:15:17.807Z,26.80
2017-09-30T13:17:50.526Z,26.80
2017-09-30T13:20:21.562Z,26.80
2017-09-30T13:22:52.611Z,26.80
2017-09-30T13:25:23.633Z,26.80
2017-09-30T13:27:55.447Z,26.70
2017-09-30T13:30:27.400Z,26.70
2017-09-30T13:32:59.265Z,26.60
2017-09-30T13:35:30.709Z,26.60
2017-09-30T13:38:02.514Z,26.60
2017-09-30T13:40:33.549Z,26.60
2017-09-30T13:43:04.625Z,26.60
2017-09-30T13:45:35.613Z,26.60
2017-09-30T13:48:07.117Z,26.50
2017-09-30T13:50:38.157Z,26.60
2017-09-30T13:53:09.196Z,26.80
2017-09-30T13:55:40.224Z,26.60
2017-09-30T13:58:11.253Z,26.60
2017-09-30T14:00:43.025Z,26.60
2017-09-30T14:03:14.874Z,26.50
2017-09-30T14:05:46.360Z,26.50
2017-09-30T14:08:17.588Z,26.50
2017-09-30T14:10:48.626Z,26.50
2017-09-30T14:13:19.730Z,26.50
2017-09-30T14:15:50.850Z,26.50
2017-09-30T14:18:23.193Z,26.50
2017-09-30T14:20:54.232Z,26.50
2017-09-30T14:23:25.289Z,26.50
2017-09-30T14:25:57.078Z,26.50
2017-09-30T14:28:28.122Z,26.50
2017-09-30T14:30:59.131Z,26.50
2017-09-30T14:33:30.929Z,26.50
2017-09-30T14:36:02.548Z,26.50
2017-09-30T14:38:34.354Z,26.50
2017-09-30T14:41:05.428Z,26.50
2017-09-30T14:43:37.029Z,26.50
2017-09-30T14:46:08.060Z,26.50
2017-09-30T14:48:39.502Z,26.50
2017-09-30T14:51:11.261Z,26.40
2017-09-30T14:53:43.081Z,26.40
2017-09-30T14:56:14.984Z,26.40
2017-09-30T14:58:46.062Z,26.40
2017-09-30T15:01:17.540Z,26.40
2017-09-30T15:03:48.568Z,26.30
2017-09-30T15:06:20.767Z,26.30
2017-09-30T15:08:52.565Z,26.20
2017-09-30T15:11:23.570Z,26.20
2017-09-30T15:13:55.409Z,26.30
2017-09-30T15:16:26.425Z,26.20
2017-09-30T15:18:57.956Z,26.30
2017-09-30T15:21:29.030Z,26.20
2017-09-30T15:24:00.069Z,26.20
2017-09-30T15:26:31.105Z,26.20
2017-09-30T15:29:02.142Z,26.20
2017-09-30T15:31:33.656Z,26.20
2017-09-30T15:34:04.680Z,26.20
2017-09-30T15:36:36.994Z,26.20
2017-09-30T15:39:08.042Z,26.10
2017-09-30T15:41:39.077Z,26.20
2017-09-30T15:44:10.104Z,26.10
2017-09-30T15:46:41.122Z,26.10
2017-09-30T15:49:13.170Z,26.10
2017-09-30T15:51:44.195Z,26.00
2017-09-30T15:54:15.201Z,26.10
2017-09-30T15:56:46.213Z,26.00
2017-09-30T15:59:17.317Z,26.00
2017-09-30T16:01:50.161Z,26.00
2017-09-30T16:04:21.194Z,26.00
2017-09-30T16:06:52.247Z,25.90
2017-09-30T16:09:23.351Z,25.90
2017-09-30T16:11:55.159Z,25.90
2017-09-30T16:14:26.219Z,25.90
2017-09-30T16:16:57.253Z,25.90
2017-09-30T16:19:28.544Z,25.80
2017-09-30T16:22:00.296Z,25.80
2017-09-30T16:24:32.070Z,25.80
2017-09-30T16:27:03.076Z,25.80
2017-09-30T16:29:34.076Z,25.80
2017-09-30T16:32:05.592Z,25.80
2017-09-30T16:34:37.377Z,25.80
2017-09-30T16:37:09.944Z,25.80
2017-09-30T16:39:41.681Z,25.80
2017-09-30T16:42:13.457Z,25.80
2017-09-30T16:44:44.488Z,25.70
2017-09-30T16:47:15.573Z,25.70
2017-09-30T16:49:47.068Z,25.70
2017-09-30T16:52:18.875Z,25.70
2017-09-30T16:54:49.908Z,25.70
2017-09-30T16:57:20.936Z,25.70
2017-09-30T16:59:51.973Z,25.70
2017-09-30T17:02:23.471Z,25.70
2017-09-30T17:04:54.776Z,25.70
2017-09-30T17:07:26.178Z,25.70
2017-09-30T17:10:02.252Z,25.70
2017-09-30T17:12:34.057Z,25.70
2017-09-30T17:15:05.088Z,25.70
2017-09-30T17:17:36.114Z,25.70
2017-09-30T17:20:07.224Z,25.80
2017-09-30T17:22:38.269Z,25.80
2017-09-30T17:25:09.294Z,25.70
2017-09-30T17:27:40.337Z,25.80
2017-09-30T17:30:11.350Z,25.80
2017-09-30T17:32:42.893Z,25.80
2017-09-30T17:35:13.908Z,25.80
2017-09-30T17:37:45.040Z,25.80
2017-09-30T17:40:16.840Z,25.70
2017-09-30T17:42:47.962Z,25.80
2017-09-30T17:45:19.011Z,25.80
2017-09-30T17:47:50.041Z,25.80
2017-09-30T17:50:21.473Z,25.80
2017-09-30T17:52:53.265Z,25.80
2017-09-30T17:55:24.302Z,25.80
2017-09-30T17:57:55.320Z,25.80
2017-09-30T18:00:27.092Z,25.80
2017-09-30T18:02:58.394Z,25.80
2017-09-30T18:05:29.440Z,25.80
2017-09-30T18:08:00.739Z,25.80
2017-09-30T18:10:31.781Z,25.70
2017-09-30T18:13:02.789Z,25.70
2017-09-30T18:15:35.052Z,25.80
2017-09-30T18:18:06.835Z,25.80
2017-09-30T18:20:38.262Z,25.70
2017-09-30T18:23:10.040Z,25.80
2017-09-30T18:25:41.063Z,25.80
2017-09-30T18:28:12.831Z,25.80
2017-09-30T18:30:43.869Z,25.80
2017-09-30T18:33:16.110Z,25.80
2017-09-30T18:35:47.130Z,25.80
2017-09-30T18:38:18.943Z,25.90
2017-09-30T18:40:49.964Z,25.80
2017-09-30T18:43:21.775Z,25.90
2017-09-30T18:45:53.287Z,25.80
2017-09-30T18:48:25.069Z,25.80
2017-09-30T18:50:56.214Z,25.80
2017-09-30T18:53:27.273Z,25.80
2017-09-30T18:55:58.286Z,25.80
2017-09-30T18:58:29.316Z,25.90
2017-09-30T19:01:00.329Z,25.90
2017-09-30T19:03:31.819Z,25.90
2017-09-30T19:06:02.821Z,25.90
2017-09-30T19:08:35.536Z,25.90
2017-09-30T19:11:06.607Z,25.80
2017-09-30T19:13:37.607Z,25.80
2017-09-30T19:16:08.949Z,25.80
2017-09-30T19:18:40.737Z,25.80
2017-09-30T19:21:12.154Z,25.80
2017-09-30T19:23:43.925Z,25.80
2017-09-30T19:26:14.972Z,25.80
2017-09-30T19:28:45.990Z,25.80
2017-09-30T19:31:17.794Z,25.80
2017-09-30T19:33:49.182Z,25.80
2017-09-30T19:36:20.228Z,25.80
2017-09-30T19:38:51.256Z,25.80
2017-09-30T19:41:22.450Z,25.80
2017-09-30T19:43:53.468Z,25.80
2017-09-30T19:46:25.831Z,25.70
2017-09-30T19:48:57.620Z,25.60
2017-09-30T19:51:29.041Z,25.70
2017-09-30T19:54:00.816Z,25.70
2017-09-30T19:56:32.598Z,25.70
2017-09-30T19:59:04.640Z,25.60
2017-09-30T20:01:36.365Z,25.60
2017-09-30T20:04:08.939Z,25.60
2017-09-30T20:06:39.974Z,25.60
2017-09-30T20:09:10.948Z,25.60
2017-09-30T20:11:42.776Z,25.60
2017-09-30T20:14:13.766Z,25.60
2017-09-30T20:16:45.193Z,25.60
2017-09-30T20:19:16.953Z,25.60
2017-09-30T20:21:49.188Z,25.60
2017-09-30T20:24:20.992Z,25.60
2017-09-30T20:26:52.040Z,25.60
2017-09-30T20:29:23.053Z,25.60
2017-09-30T20:31:54.829Z,25.60
2017-09-30T20:34:26.256Z,25.50
2017-09-30T20:36:58.286Z,25.60
2017-09-30T20:39:29.283Z,25.50
2017-09-30T20:42:00.304Z,25.60
2017-09-30T20:44:32.068Z,25.60
2017-09-30T20:47:04.362Z,25.60
2017-09-30T20:49:35.396Z,25.60
2017-09-30T20:52:06.416Z,25.60
2017-09-30T20:54:38.207Z,25.60
2017-09-30T20:57:10.193Z,25.60
2017-09-30T20:59:41.727Z,25.60
2017-09-30T21:02:13.789Z,25.60
2017-09-30T21:04:45.313Z,25.60
2017-09-30T21:07:17.089Z,25.60
2017-09-30T21:09:48.097Z,25.60
2017-09-30T21:12:19.908Z,25.60
2017-09-30T21:14:50.896Z,25.60
2017-09-30T21:17:23.195Z,25.50
2017-09-30T21:19:54.202Z,25.50
2017-09-30T21:22:25.190Z,25.50
2017-09-30T21:24:56.195Z,25.40
2017-09-30T21:27:27.957Z,25.50
2017-09-30T21:30:00.104Z,25.50
2017-09-30T21:32:31.110Z,25.40
2017-09-30T21:35:03.408Z,25.50
2017-09-30T21:37:34.474Z,25.40
2017-09-30T21:40:06.454Z,25.40
2017-09-30T21:42:37.544Z,25.40
2017-09-30T21:45:08.586Z,25.40
2017-09-30T21:47:40.197Z,25.30
2017-09-30T21:50:11.208Z,25.40
2017-09-30T21:52:43.041Z,25.40
2017-09-30T21:55:14.026Z,25.30
2017-09-30T21:57:45.024Z,25.40
2017-09-30T22:00:17.097Z,25.40
2017-09-30T22:02:48.097Z,25.30
2017-09-30T22:05:19.470Z,25.40
2017-09-30T22:07:50.465Z,25.40
2017-09-30T22:10:21.424Z,25.40
2017-09-30T22:12:52.463Z,25.40
2017-09-30T22:15:24.765Z,25.40
2017-09-30T22:17:56.034Z,25.40
2017-09-30T22:20:27.853Z,25.30
2017-09-30T22:22:58.927Z,25.30
2017-09-30T22:25:30.061Z,25.30
2017-09-30T22:28:01.049Z,25.30
2017-09-30T22:30:32.514Z,25.30
2017-09-30T22:33:03.539Z,25.30
2017-09-30T22:35:34.820Z,25.30
2017-09-30T22:38:05.821Z,25.30
2017-09-30T22:40:37.785Z,25.30
2017-09-30T22:43:09.874Z,25.30
2017-09-30T22:45:42.227Z,25.30
2017-09-30T22:48:14.259Z,25.30
2017-09-30T22:50:46.011Z,25.30
2017-09-30T22:53:19.956Z,25.30
2017-09-30T22:55:50.950Z,25.30
2017-09-30T22:58:21.969Z,25.30
2017-09-30T23:00:53.438Z,25.30
2017-09-30T23:03:24.433Z,25.30
2017-09-30T23:05:55.493Z,25.30
2017-09-30T23:08:26.477Z,25.30
2017-09-30T23:10:58.213Z,25.30
2017-09-30T23:13:29.750Z,25.30
2017-09-30T23:16:00.757Z,25.40
2017-09-30T23:18:31.869Z,25.40
2017-09-30T23:21:03.602Z,25.40
2017-09-30T23:23:34.600Z,25.40
2017-09-30T23:26:05.673Z,25.40
2017-09-30T23:28:36.653Z,25.40
2017-09-30T23:31:08.858Z,25.50
2017-09-30T23:33:39.848Z,25.50
2017-09-30T23:36:12.199Z,25.50
2017-09-30T23:38:43.239Z,25.50
2017-09-30T23:41:14.997Z,26.10
2017-09-30T23:43:46.375Z,25.60
2017-09-30T23:46:18.141Z,25.70
2017-09-30T23:48:50.406Z,25.80
2017-09-30T23:51:22.144Z,25.80
2017-09-30T23:53:53.153Z,25.80
2017-09-30T23:56:24.129Z,25.90
2017-09-30T23:58:55.398Z,26.00
